createdAt,value
2023-02-24T00:00:54.920Z,22.74
2023-02-24T00:01:54.955Z,22.76
2023-02-24T00:02:55.053Z,22.74
2023-02-24T00:03:55.053Z,22.74
2023-02-24T00:09:55.370Z,22.74
2023-02-24T00:10:55.458Z,22.73
2023-02-24T00:11:55.557Z,22.70
2023-02-24T00:12:55.568Z,22.71
2023-02-24T00:21:55.978Z,22.66
2023-02-24T00:22:56.037Z,22.66
2023-02-24T00:23:56.023Z,22.66
2023-02-24T00:24:56.075Z,22.64
2023-02-24T00:25:56.146Z,22.64
2023-02-24T00:26:56.189Z,22.64
2023-02-24T00:27:56.232Z,22.65
2023-02-24T00:28:56.196Z,22.63
2023-02-24T00:29:56.306Z,22.60
2023-02-24T00:30:56.367Z,22.61
2023-02-24T00:31:56.671Z,22.61
2023-02-24T00:32:56.410Z,22.60
2023-02-24T00:33:56.415Z,22.62
2023-02-24T00:34:56.486Z,22.63
2023-02-24T00:35:56.492Z,22.62
2023-02-24T00:36:56.555Z,22.60
2023-02-24T00:37:56.628Z,22.62
2023-02-24T00:38:56.628Z,22.64
2023-02-24T00:39:56.692Z,22.59
2023-02-24T00:40:56.683Z,22.62
2023-02-24T00:41:56.737Z,22.62
2023-02-24T00:42:56.780Z,22.61
2023-02-24T00:43:56.779Z,22.60
2023-02-24T00:44:56.861Z,22.60
2023-02-24T00:45:56.902Z,22.61
2023-02-24T00:46:56.921Z,22.61
2023-02-24T00:47:56.949Z,22.62
2023-02-24T00:48:57.008Z,22.62
2023-02-24T00:49:57.059Z,22.59
2023-02-24T00:50:57.045Z,22.61
2023-02-24T00:51:57.110Z,22.62
2023-02-24T00:52:57.126Z,22.63
2023-02-24T00:53:57.127Z,22.63
2023-02-24T00:54:57.180Z,22.63
2023-02-24T00:55:57.248Z,22.63
2023-02-24T00:56:57.295Z,22.63
2023-02-24T00:57:57.290Z,22.64
2023-02-24T00:58:57.326Z,22.64
2023-02-24T00:59:57.372Z,22.63
2023-02-24T01:00:57.419Z,22.64
2023-02-24T01:01:57.486Z,22.65
2023-02-24T01:02:57.462Z,22.67
2023-02-24T01:03:57.544Z,22.65
2023-02-24T01:04:57.518Z,22.64
2023-02-24T01:05:57.577Z,22.65
2023-02-24T01:06:57.673Z,22.66
2023-02-24T01:07:57.650Z,22.65
2023-02-24T01:08:57.673Z,22.65
2023-02-24T01:09:57.754Z,22.65
2023-02-24T01:10:57.804Z,22.66
2023-02-24T01:11:57.916Z,22.66
2023-02-24T01:12:57.876Z,22.66
2023-02-24T01:13:57.895Z,22.64
2023-02-24T01:14:58.000Z,22.65
2023-02-24T01:15:58.046Z,22.66
2023-02-24T01:16:58.046Z,22.66
2023-02-24T01:17:58.093Z,22.64
2023-02-24T01:18:58.120Z,22.63
2023-02-24T01:19:58.176Z,22.63
2023-02-24T01:20:58.248Z,22.62
2023-02-24T01:21:58.300Z,22.61
2023-02-24T01:22:58.315Z,22.60
2023-02-24T01:23:58.406Z,22.61
2023-02-24T01:24:58.413Z,22.60
2023-02-24T01:25:58.478Z,22.61
2023-02-24T01:26:58.583Z,22.61
2023-02-24T01:27:58.600Z,22.60
2023-02-24T01:28:58.691Z,22.59
2023-02-24T01:29:58.676Z,22.59
2023-02-24T01:30:58.823Z,22.62
2023-02-24T01:31:59.049Z,22.63
2023-02-24T01:32:59.031Z,22.62
2023-02-24T01:33:58.891Z,22.63
2023-02-24T01:34:58.944Z,22.61
2023-02-24T01:43:59.330Z,22.60
2023-02-24T01:52:59.616Z,22.61
2023-02-24T01:53:59.723Z,22.61
2023-02-24T01:54:59.680Z,22.61
2023-02-24T01:55:59.757Z,22.60
2023-02-24T01:56:59.811Z,22.59
2023-02-24T01:57:59.869Z,22.60
2023-02-24T01:58:59.883Z,22.60
2023-02-24T01:59:59.994Z,22.62
2023-02-24T02:01:00.012Z,22.63
2023-02-24T02:02:00.248Z,22.64
2023-02-24T02:03:00.244Z,22.62
2023-02-24T02:04:00.179Z,22.61
2023-02-24T02:05:00.275Z,22.61
2023-02-24T02:06:00.297Z,22.61
2023-02-24T02:07:00.336Z,22.62
2023-02-24T02:08:00.360Z,22.62
2023-02-24T02:09:00.422Z,22.62
2023-02-24T02:10:00.482Z,22.61
2023-02-24T02:11:00.547Z,22.62
2023-02-24T02:14:00.695Z,22.63
2023-02-24T04:35:06.489Z,21.91
2023-02-24T04:36:06.546Z,21.90
2023-02-24T04:37:06.593Z,21.89
2023-02-24T04:38:06.691Z,21.89
2023-02-24T04:39:06.691Z,21.88
2023-02-24T04:40:06.765Z,21.92
2023-02-24T04:41:06.787Z,21.94
2023-02-24T04:42:06.846Z,21.91
2023-02-24T04:43:06.957Z,21.90
2023-02-24T04:44:06.963Z,21.92
2023-02-24T04:45:07.019Z,21.92
2023-02-24T04:46:07.082Z,21.93
2023-02-24T04:47:07.126Z,21.90
2023-02-24T04:48:07.187Z,21.89
2023-02-24T04:49:07.264Z,21.86
2023-02-24T04:50:07.320Z,21.85
2023-02-24T04:51:07.345Z,21.81
2023-02-24T04:52:07.380Z,21.78
2023-02-24T04:53:07.413Z,21.79
2023-02-24T04:54:07.509Z,21.78
2023-02-24T04:55:07.582Z,21.79
2023-02-24T04:56:07.679Z,21.80
2023-02-24T04:57:07.695Z,21.80
2023-02-24T04:58:07.747Z,21.77
2023-02-24T04:59:07.836Z,21.78
2023-02-24T05:00:07.860Z,21.78
2023-02-24T05:01:07.924Z,21.77
2023-02-24T05:02:07.941Z,21.78
2023-02-24T05:03:08.030Z,21.75
2023-02-24T05:04:08.229Z,21.77
2023-02-24T05:05:08.124Z,21.78
2023-02-24T05:06:08.196Z,21.78
2023-02-24T05:07:08.210Z,21.77
2023-02-24T05:08:08.276Z,21.79
2023-02-24T05:09:08.323Z,21.78
2023-02-24T05:10:08.373Z,21.81
2023-02-24T05:11:08.431Z,21.79
2023-02-24T05:12:08.469Z,21.79
2023-02-24T05:13:08.514Z,21.80
2023-02-24T05:14:08.600Z,21.82
2023-02-24T05:15:08.610Z,21.84
2023-02-24T05:16:08.763Z,21.85
2023-02-24T05:17:08.771Z,21.85
2023-02-24T05:18:08.831Z,21.84
2023-02-24T05:19:08.866Z,21.83
2023-02-24T05:20:08.913Z,21.82
2023-02-24T05:21:09.049Z,21.80
2023-02-24T05:22:09.102Z,21.79
2023-02-24T05:23:09.095Z,21.80
2023-02-24T05:24:09.184Z,21.79
2023-02-24T05:25:09.190Z,21.79
2023-02-24T05:26:09.254Z,21.81
2023-02-24T05:27:09.294Z,21.79
2023-02-24T05:28:09.402Z,21.83
2023-02-24T05:29:09.442Z,21.84
2023-02-24T05:30:09.481Z,21.83
2023-02-24T05:31:09.636Z,21.81
2023-02-24T05:32:09.710Z,21.79
2023-02-24T05:33:09.618Z,21.81
2023-02-24T05:34:09.702Z,21.77
2023-02-24T05:35:09.728Z,21.77
2023-02-24T05:36:09.785Z,21.77
2023-02-24T05:37:09.788Z,21.77
2023-02-24T05:38:09.824Z,21.78
2023-02-24T05:39:09.885Z,21.78
2023-02-24T05:40:09.892Z,21.78
2023-02-24T05:41:09.962Z,21.78
2023-02-24T05:42:10.024Z,21.77
2023-02-24T05:43:10.059Z,21.78
2023-02-24T05:44:10.065Z,21.75
2023-02-24T05:45:10.090Z,21.74
2023-02-24T05:46:10.173Z,21.74
2023-02-24T05:47:10.223Z,21.74
2023-02-24T05:48:10.277Z,21.76
2023-02-24T05:49:10.324Z,21.74
2023-02-24T05:50:10.318Z,21.75
2023-02-24T05:51:10.342Z,21.75
2023-02-24T05:52:10.424Z,21.75
2023-02-24T05:53:10.456Z,21.75
2023-02-24T05:54:10.488Z,21.76
2023-02-24T05:55:10.522Z,21.75
2023-02-24T05:56:10.609Z,21.76
2023-02-24T05:57:10.621Z,21.74
2023-02-24T05:58:10.690Z,21.76
2023-02-24T05:59:10.752Z,21.76
2023-02-24T06:00:10.777Z,21.76
2023-02-24T06:01:17.838Z,21.78
2023-02-24T06:02:10.983Z,21.77
2023-02-24T06:03:10.931Z,21.78
2023-02-24T06:04:10.907Z,21.77
2023-02-24T06:05:10.913Z,21.78
2023-02-24T06:06:10.904Z,21.78
2023-02-24T06:07:10.960Z,21.80
2023-02-24T06:08:10.952Z,21.80
2023-02-24T06:09:11.050Z,21.81
2023-02-24T06:10:11.007Z,21.81
2023-02-24T06:11:11.048Z,21.82
2023-02-24T06:12:11.078Z,21.83
2023-02-24T06:13:11.025Z,21.82
2023-02-24T06:14:11.064Z,21.81
2023-02-24T06:15:11.048Z,21.82
2023-02-24T06:16:11.128Z,21.83
2023-02-24T06:17:11.098Z,21.83
2023-02-24T06:18:11.097Z,21.81
2023-02-24T06:19:11.117Z,21.81
2023-02-24T06:20:11.105Z,21.82
2023-02-24T06:21:11.165Z,21.84
2023-02-24T06:22:11.153Z,21.84
2023-02-24T06:23:11.184Z,21.84
2023-02-24T06:24:11.166Z,21.83
2023-02-24T06:25:11.186Z,21.84
2023-02-24T06:26:11.191Z,21.84
2023-02-24T06:27:11.185Z,21.85
2023-02-24T06:28:11.475Z,21.86
2023-02-24T06:29:11.214Z,21.85
2023-02-24T06:30:11.220Z,21.86
2023-02-24T06:31:11.347Z,21.85
2023-02-24T06:32:11.356Z,21.87
2023-02-24T06:33:11.428Z,22.11
2023-02-24T06:34:11.261Z,22.73
2023-02-24T06:35:11.310Z,23.12
2023-02-24T06:36:11.251Z,23.17
2023-02-24T06:37:11.300Z,23.45
2023-02-24T06:38:11.445Z,23.18
2023-02-24T06:39:11.340Z,23.26
2023-02-24T06:40:11.349Z,23.11
2023-02-24T06:41:11.949Z,23.51
2023-02-24T06:42:12.030Z,23.48
2023-02-24T06:43:11.476Z,23.64
2023-02-24T06:45:11.458Z,24.24
2023-02-24T07:15:13.027Z,23.03
2023-02-24T07:16:13.115Z,23.03
2023-02-24T07:17:13.164Z,22.99
2023-02-24T07:18:13.488Z,22.94
2023-02-24T07:19:13.998Z,22.95
2023-02-24T07:20:13.293Z,22.91
2023-02-24T07:21:13.325Z,22.86
2023-02-24T07:22:13.400Z,22.74
2023-02-24T07:23:13.443Z,22.78
2023-02-24T07:24:13.490Z,22.75
2023-02-24T07:25:13.545Z,22.72
2023-02-24T07:26:13.574Z,22.59
2023-02-24T07:27:13.614Z,22.53
2023-02-24T07:28:13.684Z,22.59
2023-02-24T07:29:13.745Z,22.61
2023-02-24T07:30:13.774Z,22.59
2023-02-24T07:31:13.988Z,22.58
2023-02-24T07:32:14.049Z,22.53
2023-02-24T07:33:13.909Z,22.57
2023-02-24T07:34:14.503Z,22.54
2023-02-24T07:35:14.051Z,22.64
2023-02-24T07:36:14.109Z,22.52
2023-02-24T07:37:14.156Z,22.43
2023-02-24T07:38:14.178Z,22.47
2023-02-24T07:39:14.485Z,22.38
2023-02-24T07:40:14.298Z,22.37
2023-02-24T07:41:14.344Z,22.39
2023-02-24T07:42:14.403Z,22.37
2023-02-24T07:43:14.446Z,22.32
2023-02-24T07:44:14.583Z,22.25
2023-02-24T07:45:14.740Z,22.18
2023-02-24T07:46:14.691Z,22.21
2023-02-24T07:47:14.642Z,22.19
2023-02-24T07:48:14.731Z,22.21
2023-02-24T07:49:14.821Z,22.23
2023-02-24T07:50:14.842Z,22.20
2023-02-24T07:51:14.857Z,22.19
2023-02-24T07:52:14.947Z,22.23
2023-02-24T07:53:14.974Z,22.20
2023-02-24T07:54:15.046Z,22.21
2023-02-24T07:55:15.054Z,22.19
2023-02-24T07:56:15.097Z,22.20
2023-02-24T07:57:15.189Z,22.19
2023-02-24T07:58:15.285Z,22.22
2023-02-24T07:59:15.241Z,22.23
2023-02-24T08:00:15.204Z,22.18
2023-02-24T08:01:15.205Z,22.18
2023-02-24T08:02:15.258Z,22.19
2023-02-24T08:03:15.200Z,22.21
2023-02-24T08:04:15.459Z,22.24
2023-02-24T08:05:15.324Z,22.21
2023-02-24T08:06:15.228Z,22.21
2023-02-24T08:07:15.228Z,22.24
2023-02-24T08:08:15.353Z,22.20
2023-02-24T08:09:15.468Z,22.23
2023-02-24T08:10:15.387Z,22.18
2023-02-24T08:11:15.470Z,22.19
2023-02-24T08:12:15.598Z,22.21
2023-02-24T08:13:15.581Z,22.21
2023-02-24T08:14:15.996Z,22.21
2023-02-24T08:15:15.707Z,22.20
2023-02-24T08:16:15.814Z,22.21
2023-02-24T08:17:15.818Z,22.20
2023-02-24T08:18:15.926Z,22.28
2023-02-24T08:19:15.958Z,22.20
2023-02-24T08:20:16.081Z,22.17
2023-02-24T08:21:16.071Z,22.17
2023-02-24T08:22:16.162Z,22.18
2023-02-24T08:23:16.164Z,22.13
2023-02-24T08:24:16.216Z,22.17
2023-02-24T08:25:16.285Z,22.18
2023-02-24T08:26:16.327Z,22.16
2023-02-24T08:27:16.326Z,22.18
2023-02-24T08:28:16.396Z,22.27
2023-02-24T08:29:16.405Z,22.63
2023-02-24T08:30:16.433Z,23.45
2023-02-24T08:31:16.524Z,24.53
2023-02-24T08:32:19.042Z,25.65
2023-02-24T08:33:16.554Z,26.31
2023-02-24T08:34:16.990Z,26.80
2023-02-24T08:35:16.576Z,26.75
2023-02-24T08:36:16.619Z,27.54
2023-02-24T08:37:17.539Z,27.81
2023-02-24T08:38:16.611Z,27.84
2023-02-24T08:39:17.090Z,27.43
2023-02-24T08:40:16.549Z,27.70
2023-02-24T08:41:16.588Z,28.59
2023-02-24T08:42:16.524Z,28.28
2023-02-24T08:43:16.522Z,28.15
2023-02-24T08:44:16.462Z,26.75
2023-02-24T08:45:16.472Z,24.26
2023-02-24T08:46:16.985Z,24.39
2023-02-24T08:47:16.484Z,23.61
2023-02-24T08:48:16.493Z,23.31
2023-02-24T08:49:17.024Z,22.96
2023-02-24T08:50:17.561Z,23.18
2023-02-24T08:51:16.589Z,24.38
2023-02-24T08:52:16.654Z,24.98
2023-02-24T08:53:16.743Z,25.63
2023-02-24T08:54:16.793Z,26.41
2023-02-24T08:55:16.838Z,25.84
2023-02-24T08:56:16.917Z,26.07
2023-02-24T08:57:16.948Z,25.48
2023-02-24T08:58:16.978Z,26.17
2023-02-24T08:59:17.039Z,26.05
2023-02-24T09:00:17.079Z,25.87
2023-02-24T09:01:17.148Z,26.34
2023-02-24T09:02:17.214Z,26.29
2023-02-24T09:03:17.273Z,25.32
2023-02-24T09:04:17.547Z,25.10
2023-02-24T09:05:17.379Z,26.11
2023-02-24T09:06:17.452Z,26.29
2023-02-24T09:07:17.465Z,26.08
2023-02-24T09:08:17.552Z,26.23
2023-02-24T09:09:17.608Z,25.96
2023-02-24T09:10:17.580Z,25.72
2023-02-24T09:11:17.749Z,25.75
2023-02-24T09:12:17.689Z,25.81
2023-02-24T09:13:17.755Z,25.94
2023-02-24T09:14:26.778Z,26.35
2023-02-24T09:15:18.791Z,25.89
2023-02-24T09:16:17.861Z,26.00
2023-02-24T09:17:17.787Z,26.18
2023-02-24T09:18:17.790Z,25.67
2023-02-24T09:19:17.792Z,25.63
2023-02-24T09:20:17.844Z,25.33
2023-02-24T09:21:17.856Z,25.10
2023-02-24T09:22:21.402Z,25.15
2023-02-24T09:23:17.824Z,25.23
2023-02-24T09:24:18.048Z,25.08
2023-02-24T09:25:17.879Z,25.82
2023-02-24T09:26:17.808Z,25.87
2023-02-24T09:27:17.835Z,25.72
2023-02-24T09:28:18.179Z,25.99
2023-02-24T09:29:18.008Z,25.88
2023-02-24T09:30:17.835Z,25.75
2023-02-24T09:31:18.013Z,26.25
2023-02-24T09:32:18.057Z,26.38
2023-02-24T09:33:18.344Z,26.08
2023-02-24T09:35:17.866Z,26.13
2023-02-24T09:36:17.876Z,26.12
2023-02-24T09:37:17.867Z,26.17
2023-02-24T09:38:17.889Z,26.28
2023-02-24T09:40:17.817Z,26.34
2023-02-24T09:41:28.871Z,26.52
2023-02-24T09:42:18.853Z,26.64
2023-02-24T09:43:17.953Z,26.97
2023-02-24T09:45:17.773Z,27.04
2023-02-24T09:46:17.940Z,27.25
2023-02-24T09:47:17.736Z,27.12
2023-02-24T09:48:17.809Z,27.23
2023-02-24T09:49:18.087Z,27.88
2023-02-24T09:52:17.797Z,27.76
2023-02-24T09:53:17.992Z,27.80
2023-02-24T09:54:17.660Z,27.90
2023-02-24T09:56:17.815Z,28.22
2023-02-24T09:57:17.865Z,28.29
2023-02-24T09:58:17.849Z,28.28
2023-02-24T09:59:17.893Z,27.78
2023-02-24T10:00:17.953Z,27.69
2023-02-24T10:01:18.061Z,27.44
2023-02-24T10:02:18.032Z,27.67
2023-02-24T10:03:18.525Z,27.62
2023-02-24T10:04:21.260Z,27.49
2023-02-24T10:05:18.067Z,27.39
2023-02-24T10:06:17.952Z,26.73
2023-02-24T10:07:17.964Z,25.98
2023-02-24T10:08:17.950Z,26.69
2023-02-24T10:09:17.906Z,26.18
2023-02-24T10:10:17.926Z,26.31
2023-02-24T10:11:17.880Z,25.60
2023-02-24T10:12:17.853Z,25.46
2023-02-24T10:13:17.873Z,24.93
2023-02-24T10:14:18.000Z,24.84
2023-02-24T10:15:17.918Z,24.57
2023-02-24T10:16:17.900Z,24.68
2023-02-24T10:17:17.864Z,24.29
2023-02-24T10:18:17.805Z,24.13
2023-02-24T10:29:18.879Z,24.60
2023-02-24T10:38:17.638Z,25.04
2023-02-24T10:46:18.086Z,26.46
2023-02-24T10:55:17.492Z,22.31
2023-02-24T11:04:17.523Z,23.28
2023-02-24T11:10:17.693Z,22.97
2023-02-24T11:11:17.754Z,23.46
2023-02-24T11:19:17.979Z,23.28
2023-02-24T11:21:18.141Z,23.56
2023-02-24T11:22:18.183Z,23.37
2023-02-24T11:23:18.195Z,22.80
2023-02-24T11:24:18.204Z,22.74
2023-02-24T11:25:18.578Z,23.02
2023-02-24T11:26:18.382Z,23.18
2023-02-24T11:27:18.440Z,23.14
2023-02-24T11:28:18.441Z,23.47
2023-02-24T11:34:18.733Z,24.99
2023-02-24T11:35:19.066Z,25.20
2023-02-24T11:36:18.701Z,25.46
2023-02-24T11:37:18.704Z,25.47
2023-02-24T11:38:18.763Z,25.37
2023-02-24T11:39:21.524Z,25.44
2023-02-24T11:40:19.101Z,25.39
2023-02-24T11:41:18.763Z,25.40
2023-02-24T11:42:18.771Z,25.37
2023-02-24T11:43:18.748Z,25.29
2023-02-24T11:44:18.765Z,25.23
2023-02-24T11:45:19.080Z,25.19
2023-02-24T11:46:18.747Z,25.22
2023-02-24T11:47:18.738Z,25.10
2023-02-24T11:48:18.700Z,25.06
2023-02-24T11:49:18.688Z,25.05
2023-02-24T11:50:19.057Z,25.01
2023-02-24T11:51:18.644Z,24.95
2023-02-24T11:52:18.638Z,24.90
2023-02-24T11:53:18.656Z,24.86
2023-02-24T11:54:19.559Z,24.77
2023-02-24T11:55:18.636Z,24.72
2023-02-24T11:56:18.640Z,24.69
2023-02-24T11:57:18.593Z,24.65
2023-02-24T11:58:18.598Z,24.62
2023-02-24T11:59:18.553Z,24.57
2023-02-24T12:00:18.569Z,24.56
2023-02-24T12:01:18.648Z,24.55
2023-02-24T12:02:18.519Z,24.51
2023-02-24T12:03:18.616Z,24.46
2023-02-24T12:04:18.531Z,24.43
2023-02-24T12:05:18.551Z,24.43
2023-02-24T12:06:18.564Z,24.43
2023-02-24T12:07:18.502Z,24.42
2023-02-24T12:08:18.458Z,24.37
2023-02-24T12:09:18.464Z,24.34
2023-02-24T12:10:18.414Z,24.29
2023-02-24T12:11:18.448Z,24.30
2023-02-24T12:12:18.403Z,24.27
2023-02-24T12:13:18.404Z,24.22
2023-02-24T12:14:18.411Z,24.24
2023-02-24T12:15:18.563Z,24.20
2023-02-24T12:16:18.425Z,24.14
2023-02-24T12:17:18.529Z,24.12
2023-02-24T12:18:18.344Z,24.15
2023-02-24T12:19:18.335Z,24.15
2023-02-24T12:20:18.341Z,24.09
2023-02-24T12:21:18.375Z,24.04
2023-02-24T12:22:18.290Z,24.04
2023-02-24T12:23:18.342Z,23.95
2023-02-24T12:24:18.268Z,23.94
2023-02-24T12:25:18.272Z,23.90
2023-02-24T12:26:18.565Z,23.89
2023-02-24T12:27:18.275Z,23.87
2023-02-24T12:28:18.269Z,23.86
2023-02-24T12:29:18.232Z,23.85
2023-02-24T12:30:18.191Z,23.84
2023-02-24T12:31:18.686Z,23.77
2023-02-24T12:32:18.285Z,23.78
2023-02-24T12:33:18.184Z,23.76
2023-02-24T12:34:18.178Z,23.75
2023-02-24T12:35:18.118Z,23.74
2023-02-24T12:36:18.597Z,23.72
2023-02-24T12:37:18.154Z,23.70
2023-02-24T12:38:18.095Z,23.70
2023-02-24T12:39:18.144Z,23.68
2023-02-24T12:40:18.114Z,23.68
2023-02-24T12:41:18.068Z,23.65
2023-02-24T12:42:18.092Z,23.65
2023-02-24T12:43:18.046Z,23.63
2023-02-24T12:44:18.030Z,23.59
2023-02-24T12:45:18.054Z,23.59
2023-02-24T12:46:18.079Z,23.56
2023-02-24T12:47:18.011Z,23.58
2023-02-24T12:48:18.022Z,23.59
2023-02-24T12:49:17.983Z,23.59
2023-02-24T12:50:17.979Z,23.56
2023-02-24T12:51:18.103Z,23.56
2023-02-24T12:52:17.993Z,23.55
2023-02-24T12:53:17.994Z,23.56
2023-02-24T12:54:18.069Z,23.54
2023-02-24T12:55:18.035Z,23.53
2023-02-24T12:56:18.072Z,23.53
2023-02-24T12:57:18.088Z,23.50
2023-02-24T12:58:18.100Z,23.50
2023-02-24T12:59:18.110Z,23.49
2023-02-24T13:00:18.140Z,23.50
2023-02-24T13:01:18.254Z,23.45
2023-02-24T13:02:18.246Z,23.45
2023-02-24T13:03:18.168Z,23.45
2023-02-24T13:04:18.205Z,23.45
2023-02-24T13:05:18.180Z,23.43
2023-02-24T13:06:18.184Z,23.40
2023-02-24T13:07:18.201Z,23.39
2023-02-24T13:08:18.266Z,23.38
2023-02-24T13:09:18.250Z,23.37
2023-02-24T13:10:18.278Z,23.35
2023-02-24T13:11:18.249Z,23.34
2023-02-24T13:12:18.261Z,23.30
2023-02-24T13:13:18.267Z,23.28
2023-02-24T13:14:18.307Z,23.28
2023-02-24T13:15:18.311Z,23.28
2023-02-24T13:16:18.358Z,23.30
2023-02-24T13:17:18.321Z,23.27
2023-02-24T13:18:18.373Z,23.28
2023-02-24T13:19:18.384Z,23.27
2023-02-24T13:20:18.412Z,23.27
2023-02-24T13:21:18.440Z,23.27
2023-02-24T13:22:18.414Z,23.25
2023-02-24T13:23:18.416Z,23.24
2023-02-24T13:24:18.430Z,23.22
2023-02-24T13:25:18.440Z,23.21
2023-02-24T13:26:18.488Z,23.22
2023-02-24T13:27:18.486Z,23.22
2023-02-24T13:28:18.529Z,23.18
2023-02-24T13:29:18.508Z,23.22
2023-02-24T13:30:18.552Z,23.18
2023-02-24T13:31:18.576Z,23.18
2023-02-24T13:32:18.643Z,23.16
2023-02-24T13:33:18.603Z,23.17
2023-02-24T13:34:18.554Z,23.17
2023-02-24T13:35:18.544Z,23.15
2023-02-24T13:36:18.606Z,23.16
2023-02-24T13:37:18.618Z,23.14
2023-02-24T13:38:18.604Z,23.16
2023-02-24T13:39:18.618Z,23.11
2023-02-24T13:40:18.618Z,23.14
2023-02-24T13:41:18.793Z,23.14
2023-02-24T13:42:18.631Z,23.15
2023-02-24T13:43:18.679Z,23.12
2023-02-24T13:44:18.696Z,23.12
2023-02-24T13:45:18.700Z,23.12
2023-02-24T13:46:18.813Z,23.11
2023-02-24T13:47:18.703Z,23.11
2023-02-24T13:48:18.731Z,23.09
2023-02-24T13:49:18.762Z,23.10
2023-02-24T13:50:18.826Z,23.10
2023-02-24T13:51:18.948Z,23.11
2023-02-24T13:52:18.820Z,23.10
2023-02-24T13:53:18.887Z,23.11
2023-02-24T13:54:18.850Z,23.07
2023-02-24T13:55:18.887Z,23.08
2023-02-24T13:56:18.963Z,23.10
2023-02-24T13:57:18.929Z,23.08
2023-02-24T13:58:18.919Z,23.08
2023-02-24T13:59:18.965Z,23.07
2023-02-24T14:00:18.988Z,23.06
2023-02-24T14:01:19.064Z,23.06
2023-02-24T14:02:18.999Z,23.06
2023-02-24T14:03:18.989Z,23.07
2023-02-24T14:04:19.036Z,23.05
2023-02-24T14:05:19.000Z,23.05
2023-02-24T14:06:19.216Z,23.04
2023-02-24T14:07:19.023Z,23.06
2023-02-24T14:08:19.082Z,23.10
2023-02-24T14:09:19.028Z,23.62
2023-02-24T14:10:19.201Z,23.57
2023-02-24T14:11:19.232Z,23.54
2023-02-24T14:12:19.105Z,23.57
2023-02-24T14:13:19.140Z,23.68
2023-02-24T14:14:19.148Z,23.65
2023-02-24T14:15:19.185Z,23.71
2023-02-24T14:16:19.611Z,23.70
2023-02-24T14:17:19.204Z,23.80
2023-02-24T14:18:19.175Z,23.78
2023-02-24T14:19:19.238Z,23.76
2023-02-24T14:20:19.200Z,23.77
2023-02-24T14:21:19.231Z,23.79
2023-02-24T14:22:19.246Z,23.78
2023-02-24T14:23:19.282Z,23.81
2023-02-24T14:24:19.328Z,23.78
2023-02-24T14:25:19.255Z,23.81
2023-02-24T14:26:19.637Z,23.80
2023-02-24T14:27:19.263Z,23.80
2023-02-24T14:28:19.288Z,23.78
2023-02-24T14:29:19.272Z,23.78
2023-02-24T14:30:19.291Z,23.79
2023-02-24T14:31:19.452Z,23.80
2023-02-24T14:32:19.446Z,23.80
2023-02-24T14:33:19.298Z,23.80
2023-02-24T14:34:19.298Z,23.80
2023-02-24T14:35:19.323Z,23.80
2023-02-24T14:36:19.685Z,23.78
2023-02-24T14:37:19.330Z,23.77
2023-02-24T14:38:19.369Z,23.74
2023-02-24T14:39:19.345Z,23.73
2023-02-24T14:40:19.401Z,23.75
2023-02-24T14:41:19.400Z,23.76
2023-02-24T14:42:19.405Z,23.76
2023-02-24T14:43:19.424Z,23.74
2023-02-24T14:44:19.497Z,23.72
2023-02-24T14:45:19.451Z,23.73
2023-02-24T14:46:19.741Z,23.71
2023-02-24T14:47:19.527Z,23.73
2023-02-24T14:48:19.511Z,23.69
2023-02-24T14:49:19.508Z,23.70
2023-02-24T14:50:19.521Z,23.68
2023-02-24T14:51:19.535Z,23.64
2023-02-24T14:52:19.537Z,23.66
2023-02-24T14:53:19.546Z,23.64
2023-02-24T14:54:19.542Z,23.61
2023-02-24T14:55:19.549Z,23.62
2023-02-24T14:56:19.851Z,23.61
2023-02-24T14:57:19.567Z,23.61
2023-02-24T14:58:19.571Z,23.61
2023-02-24T14:59:19.542Z,23.60
2023-02-24T15:00:19.591Z,23.64
2023-02-24T15:01:19.650Z,23.60
2023-02-24T15:02:19.878Z,23.59
2023-02-24T15:03:19.810Z,23.56
2023-02-24T15:04:19.655Z,23.57
2023-02-24T15:05:19.663Z,23.54
2023-02-24T15:06:20.028Z,23.55
2023-02-24T15:07:19.696Z,23.55
2023-02-24T15:08:19.710Z,23.54
2023-02-24T15:09:19.719Z,23.54
2023-02-24T15:10:19.759Z,23.53
2023-02-24T15:11:19.787Z,23.52
2023-02-24T15:12:19.791Z,23.50
2023-02-24T15:13:19.818Z,23.47
2023-02-24T15:14:19.808Z,23.47
2023-02-24T15:15:19.821Z,23.46
2023-02-24T15:16:20.192Z,23.47
2023-02-24T15:17:19.851Z,23.47
2023-02-24T15:18:19.925Z,23.43
2023-02-24T15:19:19.869Z,23.43
2023-02-24T15:20:19.871Z,23.40
2023-02-24T15:21:19.888Z,23.42
2023-02-24T15:22:19.893Z,23.39
2023-02-24T15:23:19.891Z,23.38
2023-02-24T15:24:19.927Z,23.41
2023-02-24T15:25:21.314Z,23.38
2023-02-24T15:26:20.220Z,23.42
2023-02-24T15:27:19.882Z,23.39
2023-02-24T15:28:19.889Z,23.38
2023-02-24T15:29:19.830Z,23.37
2023-02-24T15:30:19.810Z,23.32
2023-02-24T15:31:19.991Z,23.31
2023-02-24T15:32:19.917Z,23.33
2023-02-24T15:33:19.824Z,23.30
2023-02-24T15:34:19.790Z,23.31
2023-02-24T15:35:19.776Z,23.30
2023-02-24T15:36:20.040Z,23.29
2023-02-24T15:37:19.774Z,23.29
2023-02-24T15:38:19.697Z,23.29
2023-02-24T15:39:19.692Z,23.26
2023-02-24T15:40:19.701Z,23.26
2023-02-24T15:41:19.671Z,23.24
2023-02-24T15:42:19.666Z,23.23
2023-02-24T15:43:19.615Z,23.26
2023-02-24T15:44:19.637Z,23.22
2023-02-24T15:45:19.621Z,23.24
2023-02-24T15:46:19.950Z,23.23
2023-02-24T15:47:19.595Z,23.23
2023-02-24T15:48:19.577Z,23.23
2023-02-24T15:49:19.562Z,23.20
2023-02-24T15:50:19.560Z,23.20
2023-02-24T15:51:19.551Z,23.19
2023-02-24T15:52:19.547Z,23.18
2023-02-24T15:53:19.528Z,23.21
2023-02-24T15:54:19.522Z,23.20
2023-02-24T15:55:19.488Z,23.19
2023-02-24T15:56:19.837Z,23.20
2023-02-24T15:57:19.440Z,23.22
2023-02-24T15:58:19.436Z,23.20
2023-02-24T15:59:19.426Z,23.21
2023-02-24T16:00:21.666Z,23.20
2023-02-24T16:01:19.515Z,23.16
2023-02-24T16:02:19.401Z,23.17
2023-02-24T16:03:19.369Z,23.17
2023-02-24T16:04:19.494Z,23.18
2023-02-24T16:05:19.353Z,23.18
2023-02-24T16:06:19.795Z,23.18
2023-02-24T16:07:19.394Z,23.17
2023-02-24T16:08:19.384Z,23.16
2023-02-24T16:09:19.421Z,23.18
2023-02-24T16:10:19.418Z,23.18
2023-02-24T16:11:19.450Z,23.18
2023-02-24T16:12:21.596Z,23.15
2023-02-24T16:13:19.432Z,23.16
2023-02-24T16:14:19.496Z,23.19
2023-02-24T16:15:19.463Z,23.18
2023-02-24T16:16:19.794Z,23.13
2023-02-24T16:17:19.512Z,23.13
2023-02-24T16:18:22.073Z,23.15
2023-02-24T16:19:19.519Z,23.14
2023-02-24T16:20:19.509Z,23.11
2023-02-24T16:21:19.596Z,23.11
2023-02-24T16:22:19.525Z,23.11
2023-02-24T16:23:19.478Z,23.10
2023-02-24T16:24:21.464Z,23.13
2023-02-24T16:25:19.448Z,23.11
2023-02-24T16:26:19.452Z,23.12
2023-02-24T16:27:19.406Z,23.11
2023-02-24T16:28:19.388Z,23.11
2023-02-24T16:29:19.374Z,23.07
2023-02-24T16:30:22.336Z,23.08
2023-02-24T16:31:19.669Z,23.10
2023-02-24T16:32:19.574Z,23.08
2023-02-24T16:33:19.496Z,23.06
2023-02-24T16:34:19.314Z,23.06
2023-02-24T16:35:19.340Z,23.06
2023-02-24T16:36:21.571Z,23.06
2023-02-24T16:37:19.324Z,23.04
2023-02-24T16:38:19.327Z,23.04
2023-02-24T16:39:19.387Z,23.06
2023-02-24T19:24:21.948Z,22.51
2023-02-24T19:25:22.014Z,22.48
2023-02-24T19:26:22.315Z,22.51
2023-02-24T19:27:22.039Z,22.50
2023-02-24T19:28:22.041Z,22.52
2023-02-24T19:29:22.046Z,22.43
2023-02-24T19:30:22.043Z,22.44
2023-02-24T19:31:22.233Z,22.43
2023-02-24T19:32:22.259Z,22.40
2023-02-24T19:33:22.072Z,22.41
2023-02-24T19:34:22.067Z,22.40
2023-02-24T19:35:22.103Z,22.34
2023-02-24T19:36:22.521Z,22.35
2023-02-24T19:37:22.116Z,22.37
2023-02-24T19:38:22.132Z,22.38
2023-02-24T19:39:22.164Z,22.38
2023-02-24T19:40:22.213Z,22.39
2023-02-24T19:41:22.222Z,22.44
2023-02-24T19:42:22.246Z,22.42
2023-02-24T19:43:22.256Z,22.39
2023-02-24T19:44:22.247Z,22.40
2023-02-24T19:45:22.298Z,22.44
2023-02-24T19:46:22.741Z,22.42
2023-02-24T19:47:22.366Z,22.43
2023-02-24T19:48:22.360Z,22.41
2023-02-24T19:49:22.389Z,22.45
2023-02-24T19:50:22.354Z,22.44
2023-02-24T19:51:22.394Z,22.41
2023-02-24T19:52:22.401Z,22.39
2023-02-24T19:53:22.406Z,22.37
2023-02-24T19:54:22.423Z,22.41
2023-02-24T19:55:22.444Z,22.32
2023-02-24T19:56:22.724Z,22.39
2023-02-24T19:57:22.469Z,22.31
2023-02-24T19:58:22.471Z,22.40
2023-02-24T19:59:22.475Z,22.43
2023-02-24T20:00:22.502Z,22.35
2023-02-24T20:01:22.606Z,22.38
2023-02-24T20:02:22.570Z,22.38
2023-02-24T20:03:22.601Z,22.38